Time;durP1;ratioP1;P1;durP2;ratioP2;P2;SDS_P1;SDS_P2;PMS_P1;PMS_P2;Temp;Humidity;BMP_temperature;BMP_pressure;BME280_temperature;BME280_humidity;BME280_pressure;Samples;Min_cycle;Max_cycle;Signal;HPM_P1;HPM_P2
2021/12/26 00:01:06;;;;;;;5.50;1.38;;;;;;;;;;5087820;28;20051;-70
2021/12/26 00:03:33;;;;;;;3.35;1.63;;;;;;;;;;5088545;28;20040;-70
2021/12/26 00:06:01;;;;;;;3.17;1.00;;;;;;;;;;5087115;28;20078;-69
2021/12/26 00:08:28;;;;;;;4.03;1.10;;;;;;;;;;5088662;28;20174;-69
2021/12/26 00:10:54;;;;;;;4.85;1.27;;;;;;;;;;5087942;28;20050;-69
2021/12/26 00:13:22;;;;;;;6.47;2.20;;;;;;;;;;5087140;28;20072;-70
2021/12/26 00:15:48;;;;;;;6.18;1.95;;;;;;;;;;5087879;28;20059;-68
2021/12/26 00:18:15;;;;;;;7.97;1.67;;;;;;;;;;5089810;28;20040;-68
2021/12/26 00:20:41;;;;;;;4.35;1.40;;;;;;;;;;5092470;28;20046;-68
2021/12/26 00:23:07;;;;;;;10.70;1.63;;;;;;;;;;5093540;28;20047;-69
2021/12/26 00:25:33;;;;;;;6.65;1.45;;;;;;;;;;5092805;28;20040;-68
2021/12/26 00:28:00;;;;;;;2.90;1.40;;;;;;;;;;5093500;28;20422;-68
2021/12/26 00:30:26;;;;;;;3.90;1.50;;;;;;;;;;5093378;28;20047;-69
2021/12/26 00:32:53;;;;;;;4.40;1.27;;;;;;;;;;5093529;28;20047;-68
2021/12/26 00:35:20;;;;;;;4.03;1.58;;;;;;;;;;5093263;28;20051;-69
2021/12/26 00:37:46;;;;;;;4.90;1.30;;;;;;;;;;5092850;28;20760;-69
2021/12/26 00:40:13;;;;;;;3.95;1.55;;;;;;;;;;5092576;28;20493;-69
2021/12/26 00:42:40;;;;;;;3.72;1.40;;;;;;;;;;5091752;28;20040;-69
2021/12/26 00:45:07;;;;;;;4.65;1.30;;;;;;;;;;5092953;28;20308;-69
2021/12/26 00:47:33;;;;;;;3.30;1.27;;;;;;;;;;5091172;28;20498;-69
2021/12/26 00:49:59;;;;;;;4.65;1.30;;;;;;;;;;5093136;28;20567;-68
2021/12/26 00:52:26;;;;;;;5.05;1.48;;;;;;;;;;5091826;28;20461;-68
2021/12/26 00:54:52;;;;;;;3.25;1.17;;;;;;;;;;5092686;28;20643;-68
2021/12/26 00:57:18;;;;;;;4.40;1.35;;;;;;;;;;5091127;28;20047;-68
2021/12/26 00:59:44;;;;;;;3.42;1.38;;;;;;;;;;5092729;28;20043;-68
2021/12/26 01:02:10;;;;;;;6.80;1.40;;;;;;;;;;5092798;28;20490;-68
2021/12/26 01:04:37;;;;;;;5.15;1.15;;;;;;;;;;5092841;28;20055;-69
2021/12/26 01:07:09;;;;;;;5.65;1.50;;;;;;;;;;5091554;28;20048;-69
2021/12/26 01:09:35;;;;;;;2.95;1.25;;;;;;;;;;5092806;28;20059;-69
2021/12/26 01:12:11;;;;;;;5.53;1.73;;;;;;;;;;5091962;28;20194;-69
2021/12/26 01:14:45;;;;;;;3.92;1.33;;;;;;;;;;5092581;28;20127;-68
2021/12/26 01:17:15;;;;;;;4.32;1.40;;;;;;;;;;5091356;28;20055;-68
2021/12/26 01:19:47;;;;;;;3.47;1.33;;;;;;;;;;5092526;28;20066;-68
2021/12/26 01:22:15;;;;;;;4.63;1.50;;;;;;;;;;5092530;28;20502;-68
2021/12/26 01:24:41;;;;;;;3.15;1.25;;;;;;;;;;5092273;28;20411;-68
2021/12/26 01:27:07;;;;;;;4.70;1.00;;;;;;;;;;5091878;28;20621;-68
2021/12/26 01:29:36;;;;;;;2.70;1.20;;;;;;;;;;5091351;28;20052;-68
2021/12/26 01:32:03;;;;;;;4.00;1.20;;;;;;;;;;5091872;28;20044;-70
2021/12/26 01:34:29;;;;;;;4.78;1.02;;;;;;;;;;5091948;28;20118;-68
2021/12/26 01:36:55;;;;;;;3.45;1.85;;;;;;;;;;5092416;28;20464;-69
2021/12/26 01:39:22;;;;;;;4.70;1.00;;;;;;;;;;5091483;28;20513;-69
2021/12/26 01:41:49;;;;;;;9.15;1.55;;;;;;;;;;5091421;28;20040;-69
2021/12/26 01:44:16;;;;;;;5.55;1.75;;;;;;;;;;5091240;28;20101;-69
2021/12/26 01:46:42;;;;;;;15.80;1.35;;;;;;;;;;5091217;28;20051;-69
2021/12/26 01:49:10;;;;;;;6.03;1.20;;;;;;;;;;5091348;28;20052;-69
2021/12/26 01:51:37;;;;;;;6.55;1.48;;;;;;;;;;5091234;28;20040;-69
2021/12/26 01:54:07;;;;;;;6.35;2.33;;;;;;;;;;5090887;28;20138;-68
2021/12/26 01:56:34;;;;;;;9.98;1.58;;;;;;;;;;5091010;28;20117;-68
2021/12/26 01:59:00;;;;;;;6.05;1.63;;;;;;;;;;5091281;28;20046;-68
2021/12/26 02:01:28;;;;;;;5.55;1.10;;;;;;;;;;5091063;28;20044;-68
2021/12/26 02:03:55;;;;;;;5.35;1.50;;;;;;;;;;5088860;28;20131;-68
2021/12/26 02:06:21;;;;;;;2.75;0.90;;;;;;;;;;5091206;28;20521;-68
2021/12/26 02:08:47;;;;;;;2.20;0.82;;;;;;;;;;5091414;28;20044;-68
2021/12/26 02:11:14;;;;;;;3.58;1.15;;;;;;;;;;5089790;28;20056;-68
2021/12/26 02:13:40;;;;;;;3.47;1.00;;;;;;;;;;5091605;28;20055;-70
2021/12/26 02:16:07;;;;;;;10.55;1.30;;;;;;;;;;5091048;28;20040;-68
2021/12/26 02:18:33;;;;;;;7.15;1.25;;;;;;;;;;5091276;28;20517;-68
2021/12/26 02:23:54;;;;;;;4.78;1.17;;;;;;;;;;5091339;28;20058;-68
2021/12/26 02:29:04;;;;;;;12.40;1.67;;;;;;;;;;5090624;28;20509;-68
2021/12/26 02:31:30;;;;;;;2.78;0.95;;;;;;;;;;5090870;28;20047;-69
2021/12/26 02:33:57;;;;;;;4.47;1.95;;;;;;;;;;5091315;28;20090;-69
2021/12/26 02:36:23;;;;;;;2.38;0.90;;;;;;;;;;5090773;28;20406;-67
2021/12/26 02:38:49;;;;;;;4.60;1.33;;;;;;;;;;5090919;28;20422;-69
2021/12/26 02:41:15;;;;;;;8.95;1.50;;;;;;;;;;5089774;28;20036;-69
2021/12/26 02:43:41;;;;;;;7.25;1.55;;;;;;;;;;5090039;28;20044;-70
2021/12/26 02:46:07;;;;;;;6.57;1.45;;;;;;;;;;5090751;28;20036;-70
2021/12/26 02:48:34;;;;;;;8.32;1.55;;;;;;;;;;5090886;28;20097;-70
2021/12/26 02:51:01;;;;;;;34.33;1.60;;;;;;;;;;5089817;28;20436;-68
2021/12/26 02:53:28;;;;;;;6.10;1.50;;;;;;;;;;5089888;28;20048;-70
2021/12/26 02:55:56;;;;;;;3.85;1.50;;;;;;;;;;5090421;28;20531;-70
2021/12/26 02:58:22;;;;;;;3.28;1.02;;;;;;;;;;5090587;28;20036;-70
2021/12/26 03:01:08;;;;;;;4.50;1.15;;;;;;;;;;5090503;28;20043;-70
2021/12/26 03:03:35;;;;;;;8.63;1.40;;;;;;;;;;5089774;28;20044;-69
2021/12/26 03:06:04;;;;;;;2.92;1.05;;;;;;;;;;5088872;28;20052;-69
2021/12/26 03:08:30;;;;;;;5.80;1.48;;;;;;;;;;5090426;28;20056;-69
2021/12/26 03:10:57;;;;;;;3.28;1.00;;;;;;;;;;5090009;28;20040;-67
2021/12/26 03:13:23;;;;;;;3.40;1.13;;;;;;;;;;5089652;28;20044;-69
2021/12/26 03:15:49;;;;;;;2.38;1.00;;;;;;;;;;5090347;28;20044;-69
2021/12/26 03:18:15;;;;;;;3.45;1.02;;;;;;;;;;5089334;28;20048;-69
2021/12/26 03:20:44;;;;;;;3.05;0.82;;;;;;;;;;5088935;28;20477;-69
2021/12/26 03:23:11;;;;;;;3.55;1.17;;;;;;;;;;5090256;28;20123;-69
2021/12/26 03:25:37;;;;;;;3.20;0.90;;;;;;;;;;5089375;28;20051;-70
2021/12/26 03:28:05;;;;;;;3.03;1.50;;;;;;;;;;5090147;28;20048;-70
2021/12/26 03:30:31;;;;;;;3.67;0.93;;;;;;;;;;5089954;28;20405;-70
2021/12/26 03:32:59;;;;;;;3.28;0.90;;;;;;;;;;5090103;28;20044;-68
2021/12/26 03:35:26;;;;;;;2.00;0.90;;;;;;;;;;5090095;28;20127;-69
2021/12/26 03:37:52;;;;;;;4.88;1.63;;;;;;;;;;5089286;28;20040;-70
2021/12/26 03:40:18;;;;;;;8.52;1.50;;;;;;;;;;5090039;28;20075;-69
2021/12/26 03:42:44;;;;;;;6.63;1.00;;;;;;;;;;5089899;28;20394;-69
2021/12/26 03:45:10;;;;;;;4.65;1.10;;;;;;;;;;5088555;28;20052;-69
2021/12/26 03:47:37;;;;;;;4.80;1.20;;;;;;;;;;5089600;28;20084;-70
2021/12/26 03:50:05;;;;;;;3.78;0.70;;;;;;;;;;5088699;28;20132;-69
2021/12/26 03:52:31;;;;;;;6.88;1.52;;;;;;;;;;5089069;28;20040;-69
2021/12/26 03:54:57;;;;;;;6.05;1.10;;;;;;;;;;5089435;28;20500;-69
2021/12/26 03:57:23;;;;;;;9.10;1.42;;;;;;;;;;5089594;28;20040;-69
2021/12/26 03:59:49;;;;;;;6.22;1.65;;;;;;;;;;5089460;28;20036;-69
2021/12/26 04:02:15;;;;;;;7.22;1.38;;;;;;;;;;5089474;28;20059;-69
2021/12/26 04:04:42;;;;;;;2.95;1.20;;;;;;;;;;5088977;28;20044;-69
2021/12/26 04:07:09;;;;;;;3.85;1.10;;;;;;;;;;5089591;28;20389;-69
2021/12/26 04:09:35;;;;;;;2.60;0.95;;;;;;;;;;5089332;28;20569;-70
2021/12/26 04:12:01;;;;;;;6.38;1.17;;;;;;;;;;5089133;28;20052;-70
2021/12/26 04:14:27;;;;;;;2.55;0.98;;;;;;;;;;5088790;28;20044;-70
2021/12/26 04:16:53;;;;;;;3.50;1.00;;;;;;;;;;5089026;28;20044;-70
2021/12/26 04:19:19;;;;;;;3.97;1.00;;;;;;;;;;5088340;28;20052;-70
2021/12/26 04:21:45;;;;;;;2.20;0.85;;;;;;;;;;5088136;28;20048;-70
2021/12/26 04:24:11;;;;;;;4.13;1.00;;;;;;;;;;5088794;28;20101;-70
2021/12/26 04:26:39;;;;;;;2.78;1.00;;;;;;;;;;5088989;28;20054;-70
2021/12/26 04:29:05;;;;;;;2.20;0.98;;;;;;;;;;5089252;28;20920;-70
2021/12/26 04:31:32;;;;;;;4.50;0.95;;;;;;;;;;5089111;28;20109;-70
2021/12/26 04:33:58;;;;;;;2.40;0.90;;;;;;;;;;5088840;28;20044;-70
2021/12/26 04:36:24;;;;;;;4.50;0.75;;;;;;;;;;5088296;28;20584;-69
2021/12/26 04:38:50;;;;;;;9.10;1.17;;;;;;;;;;5088851;28;20540;-69
2021/12/26 04:41:17;;;;;;;4.28;1.00;;;;;;;;;;5087444;28;20087;-70
2021/12/26 04:43:43;;;;;;;3.28;1.10;;;;;;;;;;5088243;28;20469;-69
2021/12/26 04:46:09;;;;;;;5.38;0.77;;;;;;;;;;5088518;28;20130;-69
2021/12/26 04:48:36;;;;;;;3.05;0.98;;;;;;;;;;5087660;28;20082;-69
2021/12/26 04:51:03;;;;;;;2.63;1.15;;;;;;;;;;5088393;28;20048;-69
2021/12/26 04:53:29;;;;;;;5.15;0.73;;;;;;;;;;5087425;28;20048;-69
2021/12/26 04:55:55;;;;;;;5.72;0.98;;;;;;;;;;5087501;28;20457;-69
2021/12/26 04:58:21;;;;;;;6.13;1.67;;;;;;;;;;5088394;28;20080;-69
2021/12/26 05:00:47;;;;;;;3.45;1.40;;;;;;;;;;5088211;28;20067;-69
2021/12/26 05:03:14;;;;;;;8.73;1.10;;;;;;;;;;5088125;28;20051;-69
2021/12/26 05:05:40;;;;;;;3.85;1.20;;;;;;;;;;5089208;28;20569;-69
2021/12/26 05:08:06;;;;;;;2.83;0.80;;;;;;;;;;5092085;28;20040;-69
2021/12/26 05:10:33;;;;;;;2.67;0.88;;;;;;;;;;5092165;28;20048;-69
2021/12/26 05:13:00;;;;;;;5.25;1.35;;;;;;;;;;5091963;28;20058;-69
2021/12/26 05:15:26;;;;;;;4.18;0.77;;;;;;;;;;5091221;28;20299;-69
2021/12/26 05:17:53;;;;;;;3.63;0.93;;;;;;;;;;5091726;28;20081;-69
2021/12/26 05:20:20;;;;;;;2.90;0.98;;;;;;;;;;5091934;28;20056;-69
2021/12/26 05:22:47;;;;;;;5.00;0.95;;;;;;;;;;5091366;28;20414;-69
2021/12/26 05:25:13;;;;;;;4.75;1.08;;;;;;;;;;5091936;28;20135;-69
2021/12/26 05:27:39;;;;;;;6.22;1.27;;;;;;;;;;5091880;28;20048;-69
2021/12/26 05:30:06;;;;;;;4.10;0.90;;;;;;;;;;5091200;28;20105;-69
2021/12/26 05:32:32;;;;;;;4.80;1.05;;;;;;;;;;5091540;28;20047;-69
2021/12/26 05:34:58;;;;;;;3.58;0.98;;;;;;;;;;5091584;28;20312;-69
2021/12/26 05:37:24;;;;;;;2.45;1.10;;;;;;;;;;5091065;28;20048;-69
2021/12/26 05:39:50;;;;;;;5.07;0.88;;;;;;;;;;5091342;28;20482;-69
2021/12/26 05:42:16;;;;;;;2.85;1.05;;;;;;;;;;5089961;28;20043;-69
2021/12/26 05:44:48;;;;;;;3.53;0.80;;;;;;;;;;5091433;28;20500;-69
2021/12/26 05:47:15;;;;;;;2.05;0.90;;;;;;;;;;5091758;28;20048;-69
2021/12/26 05:49:41;;;;;;;1.60;0.70;;;;;;;;;;5091134;28;20040;-69
2021/12/26 05:52:08;;;;;;;2.35;0.80;;;;;;;;;;5091542;28;20095;-69
2021/12/26 05:54:34;;;;;;;3.55;0.75;;;;;;;;;;5090945;28;20473;-69
2021/12/26 05:57:01;;;;;;;1.73;0.70;;;;;;;;;;5090750;28;20379;-69
2021/12/26 05:59:27;;;;;;;3.75;0.70;;;;;;;;;;5091041;28;20098;-69
2021/12/26 06:01:53;;;;;;;2.28;0.70;;;;;;;;;;5090306;28;20445;-69
2021/12/26 06:04:19;;;;;;;1.65;0.60;;;;;;;;;;5091331;28;20449;-69
2021/12/26 06:06:45;;;;;;;4.40;1.10;;;;;;;;;;5090487;28;20143;-69
2021/12/26 06:09:11;;;;;;;2.42;1.20;;;;;;;;;;5091688;28;20055;-70
2021/12/26 06:11:38;;;;;;;4.00;0.80;;;;;;;;;;5091305;28;20040;-70
2021/12/26 06:14:04;;;;;;;2.08;0.80;;;;;;;;;;5090267;28;20520;-70
2021/12/26 06:16:30;;;;;;;3.03;0.70;;;;;;;;;;5090946;28;20138;-69
2021/12/26 06:18:56;;;;;;;3.80;0.90;;;;;;;;;;5090825;28;20044;-69
2021/12/26 06:21:22;;;;;;;1.52;0.70;;;;;;;;;;5091264;28;20048;-69
2021/12/26 06:23:52;;;;;;;2.22;0.68;;;;;;;;;;5091009;28;20075;-69
2021/12/26 06:26:18;;;;;;;;;;;;;;;;;;5091315;28;20186;-69
2021/12/26 06:28:44;;;;;;;3.28;0.80;;;;;;;;;;5091048;28;20006;-69
2021/12/26 06:31:10;;;;;;;2.42;0.80;;;;;;;;;;5090913;28;20480;-69
2021/12/26 06:33:36;;;;;;;3.10;0.80;;;;;;;;;;5090424;28;20052;-69
2021/12/26 06:36:02;;;;;;;2.03;0.70;;;;;;;;;;5090587;28;20154;-69
2021/12/26 06:38:28;;;;;;;2.75;0.50;;;;;;;;;;5090083;28;20101;-69
2021/12/26 06:40:54;;;;;;;2.30;0.70;;;;;;;;;;5090631;28;20056;-69
2021/12/26 06:43:20;;;;;;;4.82;1.00;;;;;;;;;;5090809;28;20093;-69
2021/12/26 06:45:46;;;;;;;3.97;0.77;;;;;;;;;;5089439;28;20051;-69
2021/12/26 06:48:12;;;;;;;1.67;0.70;;;;;;;;;;5090835;28;20047;-69
2021/12/26 06:50:38;;;;;;;2.35;0.70;;;;;;;;;;5090492;28;20040;-69
2021/12/26 06:53:04;;;;;;;1.70;0.50;;;;;;;;;;5090654;28;20083;-70
2021/12/26 06:55:31;;;;;;;1.48;0.60;;;;;;;;;;5089388;28;20048;-70
2021/12/26 06:57:57;;;;;;;2.42;0.60;;;;;;;;;;5090567;28;20056;-70
2021/12/26 07:00:23;;;;;;;1.20;0.60;;;;;;;;;;5089832;28;20119;-70
2021/12/26 07:02:49;;;;;;;3.75;0.90;;;;;;;;;;5090618;28;20101;-70
2021/12/26 07:05:15;;;;;;;2.58;0.75;;;;;;;;;;5090950;28;20399;-70
2021/12/26 07:07:42;;;;;;;1.60;0.70;;;;;;;;;;5089101;28;20036;-69
2021/12/26 07:10:09;;;;;;;2.90;0.77;;;;;;;;;;5090489;28;20402;-69
2021/12/26 07:12:35;;;;;;;4.03;1.17;;;;;;;;;;5089511;28;20135;-69
2021/12/26 07:15:01;;;;;;;2.35;0.68;;;;;;;;;;5090115;28;20051;-69
2021/12/26 07:17:27;;;;;;;2.13;0.68;;;;;;;;;;5090288;28;20044;-69
2021/12/26 07:19:53;;;;;;;1.13;0.70;;;;;;;;;;5090269;28;20040;-69
2021/12/26 07:22:19;;;;;;;2.22;0.60;;;;;;;;;;5089716;28;20044;-69
2021/12/26 07:24:47;;;;;;;1.40;0.60;;;;;;;;;;5089897;28;20044;-69
2021/12/26 07:27:16;;;;;;;2.33;0.57;;;;;;;;;;5089865;28;20039;-69
2021/12/26 07:29:43;;;;;;;1.95;0.85;;;;;;;;;;5089210;28;20131;-70
2021/12/26 07:32:10;;;;;;;11.25;1.10;;;;;;;;;;5089899;28;20083;-69
2021/12/26 07:34:36;;;;;;;2.30;0.60;;;;;;;;;;5089189;28;20631;-69
2021/12/26 07:37:02;;;;;;;3.75;1.00;;;;;;;;;;5089713;28;20047;-69
2021/12/26 07:39:29;;;;;;;3.50;1.27;;;;;;;;;;5086164;28;20024;-69
2021/12/26 07:41:55;;;;;;;5.90;0.80;;;;;;;;;;5088213;28;20127;-69
2021/12/26 07:44:21;;;;;;;3.05;0.88;;;;;;;;;;5087893;28;20161;-69
2021/12/26 07:46:47;;;;;;;1.90;0.70;;;;;;;;;;5089595;28;20422;-69
2021/12/26 07:49:13;;;;;;;2.70;1.00;;;;;;;;;;5088378;28;20040;-69
2021/12/26 07:51:39;;;;;;;2.45;0.75;;;;;;;;;;5089583;28;20510;-69
2021/12/26 07:54:05;;;;;;;2.33;0.95;;;;;;;;;;5088174;28;20048;-69
2021/12/26 07:56:32;;;;;;;14.70;1.38;;;;;;;;;;5089684;28;20047;-69
2021/12/26 07:58:59;;;;;;;2.22;0.65;;;;;;;;;;5089666;28;20075;-68
2021/12/26 08:01:31;;;;;;;2.05;0.50;;;;;;;;;;5089509;28;20040;-69
2021/12/26 08:04:00;;;;;;;2.92;0.73;;;;;;;;;;5089325;28;20391;-69
2021/12/26 08:06:26;;;;;;;;;;;;;;;;;;5089755;28;20550;-69
2021/12/26 08:08:52;;;;;;;1.25;0.55;;;;;;;;;;5089303;28;20011;-69
2021/12/26 08:11:18;;;;;;;1.60;0.60;;;;;;;;;;5089876;28;20063;-69
2021/12/26 08:13:45;;;;;;;2.65;0.70;;;;;;;;;;5089568;28;20126;-69
2021/12/26 08:16:11;;;;;;;1.23;0.50;;;;;;;;;;5089256;28;20316;-68
2021/12/26 08:18:37;;;;;;;1.73;0.70;;;;;;;;;;5089485;28;20083;-69
2021/12/26 08:21:04;;;;;;;3.42;0.60;;;;;;;;;;5089437;28;20498;-68
2021/12/26 08:23:30;;;;;;;1.77;0.50;;;;;;;;;;5089786;28;20040;-68
2021/12/26 08:25:56;;;;;;;1.30;0.57;;;;;;;;;;5087917;28;20060;-68
2021/12/26 08:28:22;;;;;;;1.77;0.60;;;;;;;;;;5089651;28;20047;-68
2021/12/26 08:30:48;;;;;;;1.48;0.57;;;;;;;;;;5089241;28;20588;-69
2021/12/26 08:33:15;;;;;;;1.55;0.80;;;;;;;;;;5089255;28;20040;-68
2021/12/26 08:35:45;;;;;;;1.23;0.68;;;;;;;;;;5089404;28;20399;-69
2021/12/26 08:38:11;;;;;;;1.15;0.47;;;;;;;;;;5089200;28;20093;-69
2021/12/26 08:40:37;;;;;;;1.45;0.50;;;;;;;;;;5090895;28;20136;-68
2021/12/26 08:43:03;;;;;;;1.48;0.60;;;;;;;;;;5093391;28;20056;-68
2021/12/26 08:45:29;;;;;;;2.97;0.70;;;;;;;;;;5093047;28;20048;-69
2021/12/26 08:47:56;;;;;;;2.60;0.63;;;;;;;;;;5093330;28;20417;-69
2021/12/26 08:50:25;;;;;;;3.40;0.55;;;;;;;;;;5093210;28;20375;-69
2021/12/26 08:52:51;;;;;;;1.13;0.43;;;;;;;;;;5093304;28;20081;-69
2021/12/26 08:55:18;;;;;;;2.85;0.60;;;;;;;;;;5093193;28;20414;-69
2021/12/26 08:57:44;;;;;;;1.95;0.50;;;;;;;;;;5092682;28;20051;-69
2021/12/26 09:00:11;;;;;;;4.95;0.88;;;;;;;;;;5093448;28;20048;-69
2021/12/26 09:02:37;;;;;;;3.63;0.73;;;;;;;;;;5093063;28;20044;-71
2021/12/26 09:05:04;;;;;;;4.15;0.80;;;;;;;;;;5092422;28;20182;-70
2021/12/26 09:07:30;;;;;;;4.60;0.90;;;;;;;;;;5091529;28;20351;-69
2021/12/26 09:09:56;;;;;;;5.80;1.08;;;;;;;;;;5092760;28;20044;-69
2021/12/26 09:12:23;;;;;;;6.45;0.75;;;;;;;;;;5092770;28;20464;-69
2021/12/26 09:14:49;;;;;;;2.08;0.80;;;;;;;;;;5091680;28;20083;-69
2021/12/26 09:17:15;;;;;;;3.92;0.68;;;;;;;;;;5092811;28;20051;-70
2021/12/26 09:19:42;;;;;;;2.55;0.80;;;;;;;;;;5092155;28;20067;-69
2021/12/26 09:22:11;;;;;;;1.98;0.95;;;;;;;;;;5092616;28;20079;-69
2021/12/26 09:24:38;;;;;;;4.63;1.08;;;;;;;;;;5090199;28;20059;-70
2021/12/26 09:27:05;;;;;;;1.98;0.68;;;;;;;;;;5092517;28;20115;-69
2021/12/26 09:29:31;;;;;;;1.58;0.70;;;;;;;;;;5091444;28;20062;-68
2021/12/26 09:31:57;;;;;;;4.30;0.93;;;;;;;;;;5091228;28;20105;-70
2021/12/26 09:34:24;;;;;;;1.70;0.60;;;;;;;;;;5092359;28;20054;-70
2021/12/26 09:36:50;;;;;;;2.72;1.10;;;;;;;;;;5092483;28;20040;-69
2021/12/26 09:39:16;;;;;;;1.88;0.88;;;;;;;;;;5092225;28;20406;-69
2021/12/26 09:41:43;;;;;;;1.90;0.98;;;;;;;;;;5090941;28;20059;-68
2021/12/26 09:44:09;;;;;;;2.20;0.82;;;;;;;;;;5091542;28;20477;-68
2021/12/26 09:46:36;;;;;;;1.63;0.75;;;;;;;;;;5092047;28;20127;-69
2021/12/26 09:49:02;;;;;;;1.23;0.80;;;;;;;;;;5090708;28;20076;-71
2021/12/26 09:51:28;;;;;;;1.02;0.60;;;;;;;;;;5090192;28;20119;-69
2021/12/26 09:53:55;;;;;;;2.00;0.80;;;;;;;;;;5091451;28;20490;-69
2021/12/26 09:56:21;;;;;;;2.45;0.90;;;;;;;;;;5091668;28;20068;-69
2021/12/26 09:59:06;;;;;;;1.45;0.80;;;;;;;;;;5090075;28;20254;-68
2021/12/26 10:01:35;;;;;;;2.17;0.80;;;;;;;;;;5091936;28;20044;-69
2021/12/26 10:04:16;;;;;;;2.33;0.70;;;;;;;;;;5091077;28;20123;-69
2021/12/26 10:06:43;;;;;;;1.63;0.90;;;;;;;;;;5078187;28;20040;-69
2021/12/26 10:09:09;;;;;;;2.30;0.93;;;;;;;;;;5091554;28;20052;-69
2021/12/26 10:11:38;;;;;;;5.40;0.88;;;;;;;;;;5090417;28;20059;-68
2021/12/26 10:14:15;;;;;;;1.67;0.80;;;;;;;;;;5091486;28;20047;-69
2021/12/26 10:16:44;;;;;;;1.42;0.70;;;;;;;;;;5090666;28;20069;-69
2021/12/26 10:19:11;;;;;;;3.67;0.90;;;;;;;;;;5089992;28;20430;-69
2021/12/26 10:21:37;;;;;;;3.65;0.95;;;;;;;;;;5088368;28;20036;-69
2021/12/26 10:24:08;;;;;;;2.38;0.90;;;;;;;;;;5088952;28;20113;-69
2021/12/26 10:26:35;;;;;;;4.78;0.90;;;;;;;;;;5088752;28;20089;-69
2021/12/26 10:29:20;;;;;;;1.90;0.95;;;;;;;;;;5087783;28;20609;-69
2021/12/26 10:31:49;;;;;;;2.03;0.70;;;;;;;;;;5088573;28;20043;-70
2021/12/26 10:34:23;;;;;;;2.63;1.17;;;;;;;;;;5088329;28;20036;-70
2021/12/26 10:36:50;;;;;;;2.20;0.98;;;;;;;;;;5088208;28;20044;-70
2021/12/26 10:39:18;;;;;;;1.92;0.73;;;;;;;;;;5087235;28;20051;-70
2021/12/26 10:41:56;;;;;;;2.10;0.75;;;;;;;;;;5079352;28;20048;-70
2021/12/26 10:44:23;;;;;;;1.98;0.80;;;;;;;;;;5088967;28;20089;-69
2021/12/26 10:46:50;;;;;;;1.73;0.82;;;;;;;;;;5088274;28;20132;-69
2021/12/26 10:49:26;;;;;;;2.50;0.82;;;;;;;;;;5089594;28;20457;-70
2021/12/26 10:51:52;;;;;;;2.42;0.70;;;;;;;;;;5089660;28;20066;-68
2021/12/26 10:54:25;;;;;;;1.58;0.73;;;;;;;;;;5089871;28;20048;-70
2021/12/26 10:57:12;;;;;;;2.38;0.80;;;;;;;;;;5089983;28;20079;-69
2021/12/26 10:59:39;;;;;;;1.98;0.80;;;;;;;;;;5088138;28;20101;-67
2021/12/26 11:02:05;;;;;;;7.50;1.23;;;;;;;;;;5089099;28;20127;-68
2021/12/26 11:04:32;;;;;;;14.05;1.40;;;;;;;;;;5087776;28;20398;-68
2021/12/26 11:07:08;;;;;;;3.15;0.90;;;;;;;;;;5090120;28;20048;-68
2021/12/26 11:09:34;;;;;;;1.77;0.90;;;;;;;;;;5090296;28;20405;-68
2021/12/26 11:12:01;;;;;;;2.50;1.15;;;;;;;;;;5089568;28;20417;-70
2021/12/26 11:14:27;;;;;;;0.95;0.70;;;;;;;;;;5090202;28;20070;-69
2021/12/26 11:16:54;;;;;;;2.28;0.75;;;;;;;;;;5088160;28;20047;-70
2021/12/26 11:19:38;;;;;;;5.28;1.20;;;;;;;;;;5089427;28;20052;-70
2021/12/26 11:22:05;;;;;;;4.72;1.25;;;;;;;;;;5089283;28;20040;-70
2021/12/26 11:24:31;;;;;;;2.90;1.17;;;;;;;;;;5089869;28;20044;-70
2021/12/26 11:26:57;;;;;;;3.97;1.48;;;;;;;;;;5089489;28;20654;-70
2021/12/26 11:29:23;;;;;;;2.35;1.08;;;;;;;;;;5088466;28;20075;-70
2021/12/26 11:31:54;;;;;;;2.45;0.93;;;;;;;;;;5087959;28;20047;-70
2021/12/26 11:34:20;;;;;;;4.22;1.90;;;;;;;;;;5088684;28;20557;-70
2021/12/26 11:36:49;;;;;;;8.07;1.48;;;;;;;;;;5089138;28;20036;-70
2021/12/26 11:39:15;;;;;;;5.20;1.17;;;;;;;;;;5088954;28;20068;-69
2021/12/26 11:41:42;;;;;;;2.92;0.90;;;;;;;;;;5089400;28;20090;-71
2021/12/26 11:44:23;;;;;;;2.13;0.93;;;;;;;;;;5088800;28;20059;-69
2021/12/26 11:46:59;;;;;;;6.13;1.85;;;;;;;;;;5088076;28;20044;-70
2021/12/26 11:50:02;;;;;;;2.33;0.98;;;;;;;;;;5089016;28;20048;-70
2021/12/26 11:52:47;;;;;;;6.68;1.38;;;;;;;;;;5081135;28;20086;-70
2021/12/26 11:55:16;;;;;;;2.42;1.10;;;;;;;;;;5088406;28;20051;-70
2021/12/26 11:58:05;;;;;;;2.67;0.90;;;;;;;;;;5088781;28;20075;-69
2021/12/26 12:00:34;;;;;;;2.20;1.10;;;;;;;;;;5088689;28;20075;-69
2021/12/26 12:03:02;;;;;;;3.67;1.25;;;;;;;;;;5089054;28;20052;-70
2021/12/26 12:05:39;;;;;;;3.90;1.30;;;;;;;;;;5087410;28;20047;-69
2021/12/26 12:08:15;;;;;;;3.95;1.30;;;;;;;;;;5088958;28;20848;-70
2021/12/26 12:10:56;;;;;;;2.47;1.20;;;;;;;;;;5088118;28;20047;-70
2021/12/26 12:13:22;;;;;;;3.00;1.33;;;;;;;;;;5086799;28;20102;-70
2021/12/26 12:15:52;;;;;;;2.67;0.98;;;;;;;;;;5087952;28;20502;-70
2021/12/26 12:18:29;;;;;;;2.75;1.10;;;;;;;;;;5088647;28;20048;-70
2021/12/26 12:21:12;;;;;;;5.95;1.33;;;;;;;;;;5088937;28;20417;-71
2021/12/26 12:23:57;;;;;;;4.68;1.30;;;;;;;;;;5088545;28;20098;-70
2021/12/26 12:26:38;;;;;;;4.80;0.90;;;;;;;;;;5088598;28;20047;-71
2021/12/26 12:29:04;;;;;;;2.45;1.20;;;;;;;;;;5068844;28;20071;-70
2021/12/26 12:31:30;;;;;;;5.50;1.27;;;;;;;;;;5068448;28;20090;-71
2021/12/26 12:34:01;;;;;;;5.05;1.10;;;;;;;;;;5067290;28;20053;-71
2021/12/26 12:36:28;;;;;;;2.22;1.05;;;;;;;;;;5068006;28;20054;-71
2021/12/26 12:38:54;;;;;;;3.92;1.00;;;;;;;;;;5068363;28;20056;-70
2021/12/26 12:41:35;;;;;;;5.80;1.38;;;;;;;;;;5071290;28;20055;-71
2021/12/26 12:44:02;;;;;;;5.03;1.17;;;;;;;;;;5088829;28;20051;-70
2021/12/26 12:46:28;;;;;;;5.45;1.02;;;;;;;;;;5087950;28;20052;-70
2021/12/26 12:49:00;;;;;;;2.97;0.90;;;;;;;;;;5088495;28;20135;-70
2021/12/26 12:51:26;;;;;;;3.63;1.00;;;;;;;;;;5088682;28;20044;-70
2021/12/26 12:53:58;;;;;;;6.38;1.10;;;;;;;;;;5088345;28;20094;-70
2021/12/26 12:56:33;;;;;;;2.75;0.93;;;;;;;;;;5088431;28;20549;-71
2021/12/26 12:59:14;;;;;;;3.13;0.90;;;;;;;;;;5088196;28;20052;-69
2021/12/26 13:01:44;;;;;;;6.85;1.30;;;;;;;;;;5087909;28;20052;-67
2021/12/26 13:04:11;;;;;;;1.60;0.70;;;;;;;;;;5088397;28;20094;-68
2021/12/26 13:06:48;;;;;;;1.98;0.90;;;;;;;;;;5087967;28;20037;-68
2021/12/26 13:09:14;;;;;;;2.47;0.95;;;;;;;;;;5087218;28;20132;-68
2021/12/26 13:11:40;;;;;;;2.10;0.90;;;;;;;;;;5088415;28;20055;-69
2021/12/26 13:14:06;;;;;;;3.33;1.00;;;;;;;;;;5088408;28;20429;-69
2021/12/26 13:16:33;;;;;;;1.95;0.75;;;;;;;;;;5086791;28;20048;-69
2021/12/26 13:19:05;;;;;;;3.22;1.20;;;;;;;;;;5088505;28;20468;-68
2021/12/26 13:21:31;;;;;;;2.50;0.90;;;;;;;;;;5087842;28;20520;-69
2021/12/26 13:23:57;;;;;;;2.45;0.93;;;;;;;;;;5088176;28;20078;-69
2021/12/26 13:26:23;;;;;;;2.65;0.88;;;;;;;;;;5089578;28;20052;-68
2021/12/26 13:28:50;;;;;;;4.93;1.00;;;;;;;;;;5091310;28;20047;-69
2021/12/26 13:31:22;;;;;;;1.67;1.00;;;;;;;;;;5091067;28;20044;-69
2021/12/26 13:33:53;;;;;;;3.10;1.17;;;;;;;;;;5091552;28;20051;-70
2021/12/26 13:36:21;;;;;;;1.58;0.90;;;;;;;;;;5090747;28;20418;-69
2021/12/26 13:38:48;;;;;;;2.67;0.90;;;;;;;;;;5091436;28;20048;-69
2021/12/26 13:41:19;;;;;;;1.35;0.75;;;;;;;;;;5091272;28;20487;-69
2021/12/26 13:43:45;;;;;;;2.80;1.20;;;;;;;;;;5091667;28;20619;-69
2021/12/26 13:46:14;;;;;;;8.43;1.35;;;;;;;;;;5091587;28;20048;-71
2021/12/26 13:48:43;;;;;;;6.43;1.92;;;;;;;;;;5092354;28;20494;-71
2021/12/26 13:51:18;;;;;;;3.10;1.30;;;;;;;;;;5091679;28;20044;-71
2021/12/26 13:53:45;;;;;;;2.95;1.10;;;;;;;;;;5092690;28;20051;-71
2021/12/26 13:56:12;;;;;;;3.05;1.30;;;;;;;;;;5092409;28;20044;-72
2021/12/26 13:58:39;;;;;;;4.60;0.88;;;;;;;;;;5092010;28;20386;-71
2021/12/26 14:01:05;;;;;;;1.65;0.80;;;;;;;;;;5091481;28;20044;-71
2021/12/26 14:03:32;;;;;;;1.55;1.00;;;;;;;;;;5091895;28;20498;-72
2021/12/26 14:05:58;;;;;;;3.92;1.30;;;;;;;;;;5091883;28;20495;-72
2021/12/26 14:08:27;;;;;;;3.92;1.10;;;;;;;;;;5090855;28;20550;-71
2021/12/26 14:11:02;;;;;;;2.65;0.90;;;;;;;;;;5087287;28;20048;-71
2021/12/26 14:13:28;;;;;;;3.83;1.13;;;;;;;;;;5091248;28;20056;-71
2021/12/26 14:15:57;;;;;;;3.40;1.10;;;;;;;;;;5091596;28;20044;-70
2021/12/26 14:18:27;;;;;;;6.07;1.30;;;;;;;;;;5090987;28;20067;-71
2021/12/26 14:21:01;;;;;;;2.63;1.10;;;;;;;;;;5088866;28;20145;-71
2021/12/26 14:23:29;;;;;;;1.80;0.90;;;;;;;;;;5091841;28;20487;-70
2021/12/26 14:26:00;;;;;;;4.03;1.20;;;;;;;;;;5090838;28;20062;-71
2021/12/26 14:28:26;;;;;;;2.30;1.08;;;;;;;;;;5090868;28;20143;-71
2021/12/26 14:30:58;;;;;;;3.00;1.13;;;;;;;;;;5090610;28;20406;-74
2021/12/26 14:33:31;;;;;;;2.65;1.00;;;;;;;;;;5071607;28;20123;-71
2021/12/26 14:36:08;;;;;;;3.97;1.20;;;;;;;;;;5074894;28;20046;-72
2021/12/26 14:38:35;;;;;;;3.30;1.17;;;;;;;;;;5071163;28;20055;-72
2021/12/26 14:41:06;;;;;;;3.10;1.20;;;;;;;;;;5091057;28;20094;-72
2021/12/26 14:43:32;;;;;;;2.88;1.30;;;;;;;;;;5091384;28;20036;-71
2021/12/26 14:46:03;;;;;;;3.00;1.13;;;;;;;;;;5091543;28;20459;-71
2021/12/26 14:48:31;;;;;;;2.83;1.13;;;;;;;;;;5091506;28;20093;-72
2021/12/26 14:51:07;;;;;;;3.63;1.23;;;;;;;;;;5091453;28;20054;-71
2021/12/26 14:53:34;;;;;;;2.40;1.05;;;;;;;;;;5091082;28;20036;-71